createdAt,value
2023-01-19T00:03:45.950Z,1.40
2023-01-19T00:08:51.214Z,1.38
2023-01-19T00:13:54.972Z,1.46
2023-01-19T00:19:00.109Z,1.27
2023-01-19T00:24:03.933Z,1.41
2023-01-19T00:29:07.869Z,1.39
2023-01-19T00:34:12.934Z,1.44
2023-01-19T00:39:16.714Z,1.49
2023-01-19T00:44:20.451Z,1.44
2023-01-19T00:49:25.486Z,1.41
2023-01-19T00:54:29.243Z,1.37
2023-01-19T00:59:32.966Z,1.42
2023-01-19T01:04:38.274Z,1.49
2023-01-19T01:09:42.046Z,1.46
2023-01-19T01:14:45.808Z,1.39
2023-01-19T01:19:50.943Z,1.50
2023-01-19T01:24:54.678Z,1.52
2023-01-19T01:29:58.405Z,1.54
2023-01-19T01:35:03.800Z,1.59
2023-01-19T01:40:09.071Z,1.65
2023-01-19T01:45:32.274Z,1.44
2023-01-19T01:51:01.036Z,1.33
2023-01-19T01:56:09.619Z,1.28
2023-01-19T02:01:31.147Z,1.30
2023-01-19T02:06:54.462Z,1.27
2023-01-19T02:12:15.876Z,1.26
2023-01-19T02:17:19.673Z,1.31
2023-01-19T02:22:35.792Z,1.21
2023-01-19T02:27:41.060Z,1.12
2023-01-19T02:32:45.401Z,0.90
2023-01-19T02:37:49.372Z,0.75
2023-01-19T02:43:00.852Z,0.64
2023-01-19T02:48:05.950Z,0.59
2023-01-19T02:53:37.079Z,0.51
2023-01-19T02:58:51.245Z,0.35
2023-01-19T03:04:00.702Z,0.53
2023-01-19T03:09:12.915Z,0.46
2023-01-19T03:14:23.510Z,0.39
2023-01-19T03:19:28.897Z,0.34
2023-01-19T03:24:37.923Z,0.35
2023-01-19T03:29:47.396Z,0.38
2023-01-19T03:34:52.607Z,0.36
2023-01-19T03:39:56.680Z,0.40
2023-01-19T03:45:02.831Z,0.47
2023-01-19T03:50:13.140Z,0.42
2023-01-19T03:55:16.944Z,0.47
2023-01-19T04:00:22.207Z,0.49
2023-01-19T04:05:26.368Z,0.48
2023-01-19T04:10:30.101Z,0.43
2023-01-19T04:15:35.369Z,0.49
2023-01-19T04:20:39.188Z,0.58
2023-01-19T04:25:42.913Z,0.55
2023-01-19T04:30:50.877Z,0.47
2023-01-19T04:35:54.733Z,0.35
2023-01-19T04:40:58.356Z,0.28
2023-01-19T04:46:03.509Z,0.35
2023-01-19T04:51:07.309Z,0.36
2023-01-19T04:56:11.032Z,0.39
2023-01-19T05:01:16.063Z,0.48
2023-01-19T05:06:19.855Z,0.56
2023-01-19T05:11:23.555Z,0.60
2023-01-19T05:16:28.711Z,0.56
2023-01-19T05:21:32.592Z,0.59
2023-01-19T05:26:36.349Z,0.66
2023-01-19T05:31:41.420Z,0.58
2023-01-19T05:36:45.226Z,0.61
2023-01-19T05:41:48.981Z,0.63
2023-01-19T05:46:54.054Z,0.63
2023-01-19T05:51:57.778Z,0.61
2023-01-19T05:57:02.394Z,0.64
2023-01-19T06:02:07.681Z,0.69
2023-01-19T06:07:11.475Z,0.75
2023-01-19T06:12:15.176Z,0.70
2023-01-19T06:17:20.382Z,0.70
2023-01-19T06:22:24.534Z,0.81
2023-01-19T06:27:28.303Z,0.76
2023-01-19T06:32:33.738Z,0.71
2023-01-19T06:37:37.761Z,0.80
2023-01-19T06:42:41.660Z,0.82
2023-01-19T06:47:48.415Z,0.77
2023-01-19T06:52:52.509Z,0.75
2023-01-19T06:58:00.006Z,0.75
2023-01-19T07:03:07.435Z,0.66
2023-01-19T07:08:11.204Z,0.58
2023-01-19T07:13:14.948Z,0.55
2023-01-19T07:18:20.104Z,0.58
2023-01-19T07:23:24.066Z,0.58
2023-01-19T07:28:27.823Z,0.60
2023-01-19T07:33:33.068Z,0.66
2023-01-19T07:38:36.925Z,0.63
2023-01-19T07:43:40.677Z,0.61
2023-01-19T07:48:47.389Z,0.60
2023-01-19T07:53:51.829Z,0.60
2023-01-19T07:58:55.582Z,0.60
2023-01-19T08:04:00.686Z,0.53
2023-01-19T08:09:06.945Z,0.55
2023-01-19T08:14:11.177Z,0.54
2023-01-19T08:19:16.301Z,0.60
2023-01-19T08:24:22.855Z,0.67
2023-01-19T08:29:26.761Z,0.62
2023-01-19T08:34:31.984Z,0.58
2023-01-19T08:39:35.767Z,0.52
2023-01-19T08:44:49.752Z,0.55
2023-01-19T08:50:02.064Z,0.41
2023-01-19T08:55:07.136Z,0.55
2023-01-19T09:00:12.184Z,0.50
2023-01-19T09:05:17.335Z,0.63
2023-01-19T09:10:21.206Z,0.54
2023-01-19T09:15:24.963Z,0.61
2023-01-19T09:20:31.033Z,0.69
2023-01-19T09:25:34.983Z,0.66
2023-01-19T09:30:40.184Z,0.73
2023-01-19T09:35:46.896Z,0.71
2023-01-19T09:40:53.020Z,0.76
2023-01-19T09:46:00.305Z,0.89
2023-01-19T09:51:08.626Z,0.91
2023-01-19T09:56:14.834Z,1.03
2023-01-19T10:01:34.733Z,1.14
2023-01-19T10:06:40.437Z,1.06
2023-01-19T10:11:52.993Z,1.25
2023-01-19T10:17:05.479Z,1.35
2023-01-19T10:22:21.480Z,1.39
2023-01-19T10:27:29.256Z,1.54
2023-01-19T10:32:36.236Z,1.60
2023-01-19T10:37:42.024Z,1.65
2023-01-19T10:42:45.862Z,1.60
2023-01-19T10:47:50.632Z,1.94
2023-01-19T10:52:58.119Z,1.99
2023-01-19T10:58:02.479Z,2.05
2023-01-19T11:03:06.882Z,2.30
2023-01-19T11:08:23.864Z,2.41
2023-01-19T11:13:27.590Z,2.60
2023-01-19T11:18:34.007Z,2.65
2023-01-19T11:23:43.207Z,2.72
2023-01-19T11:28:51.351Z,2.92
2023-01-19T11:33:56.026Z,2.65
2023-01-19T11:39:04.111Z,2.84
2023-01-19T11:44:13.066Z,2.91
2023-01-19T11:49:23.229Z,3.14
2023-01-19T11:54:33.788Z,3.32
2023-01-19T11:59:37.614Z,3.45
2023-01-19T12:04:44.348Z,3.68
2023-01-19T12:09:53.700Z,3.69
2023-01-19T12:15:03.438Z,4.06
2023-01-19T12:20:18.567Z,4.21
2023-01-19T12:25:30.952Z,4.41
2023-01-19T12:30:34.947Z,4.59
2023-01-19T12:35:59.673Z,4.45
2023-01-19T12:41:29.263Z,4.41
2023-01-19T12:46:33.265Z,4.65
2023-01-19T12:51:37.180Z,4.58
2023-01-19T12:56:42.384Z,4.70
2023-01-19T13:02:24.690Z,5.19
2023-01-19T13:07:28.537Z,5.13
2023-01-19T13:12:33.652Z,5.56
2023-01-19T13:17:48.002Z,6.16
2023-01-19T13:23:19.636Z,7.82
2023-01-19T13:28:32.989Z,8.68
2023-01-19T13:33:47.563Z,9.40
2023-01-19T13:38:53.269Z,9.11
2023-01-19T13:44:02.810Z,9.13
2023-01-19T13:49:17.722Z,9.53
2023-01-19T13:54:21.559Z,8.75
2023-01-19T13:59:26.640Z,8.16
2023-01-19T14:04:32.395Z,6.68
2023-01-19T14:09:36.193Z,6.46
2023-01-19T14:14:41.563Z,5.57
2023-01-19T14:19:52.397Z,5.46
2023-01-19T14:24:56.131Z,5.36
2023-01-19T14:30:21.385Z,5.87
2023-01-19T14:35:26.008Z,5.53
2023-01-19T14:40:31.231Z,4.95
2023-01-19T14:45:39.327Z,4.88
2023-01-19T14:50:57.678Z,4.63
2023-01-19T14:56:07.523Z,4.92
2023-01-19T15:01:12.927Z,4.65
2023-01-19T15:06:18.981Z,4.71
2023-01-19T15:11:25.489Z,4.62
2023-01-19T15:16:34.070Z,4.67
2023-01-19T15:21:41.956Z,4.50
2023-01-19T15:26:45.971Z,4.10
2023-01-19T15:32:14.967Z,4.34
2023-01-19T15:37:18.838Z,4.34
2023-01-19T15:42:22.513Z,3.69
2023-01-19T15:47:27.627Z,3.35
2023-01-19T15:52:31.329Z,3.28
2023-01-19T15:57:35.491Z,3.20
2023-01-19T16:02:40.586Z,3.07
2023-01-19T16:07:44.479Z,2.96
2023-01-19T16:12:48.831Z,2.84
2023-01-19T16:17:54.083Z,2.90
2023-01-19T16:23:06.241Z,2.81
2023-01-19T16:28:17.789Z,2.82
2023-01-19T16:33:23.052Z,2.66
2023-01-19T16:38:27.019Z,2.60
2023-01-19T16:43:30.737Z,2.60
2023-01-19T16:48:36.015Z,2.42
2023-01-19T16:53:39.713Z,2.39
2023-01-19T16:58:43.941Z,2.31
2023-01-19T17:03:49.407Z,2.16
2023-01-19T17:08:53.937Z,2.18
2023-01-19T17:14:00.083Z,2.13
2023-01-19T17:19:08.017Z,2.05
2023-01-19T17:24:11.876Z,1.90
2023-01-19T17:29:16.105Z,1.82
2023-01-19T17:34:21.198Z,1.73
2023-01-19T17:39:24.965Z,1.79
2023-01-19T17:44:28.762Z,1.74
2023-01-19T17:49:33.914Z,1.81
2023-01-19T17:54:37.671Z,1.64
2023-01-19T17:59:43.792Z,1.61
2023-01-19T18:04:48.889Z,1.53
2023-01-19T18:09:55.191Z,1.42
2023-01-19T18:14:58.992Z,1.21
2023-01-19T18:20:04.621Z,1.22
2023-01-19T18:25:08.893Z,1.22
2023-01-19T18:30:13.552Z,1.35
2023-01-19T18:35:19.083Z,1.37
2023-01-19T18:40:22.889Z,1.35
2023-01-19T18:45:26.646Z,1.31
2023-01-19T18:50:32.076Z,1.25
2023-01-19T18:55:36.675Z,1.24
2023-01-19T19:00:40.702Z,1.02
2023-01-19T19:05:46.222Z,0.98
2023-01-19T19:10:50.136Z,1.05
2023-01-19T19:15:54.189Z,0.97
2023-01-19T19:20:59.598Z,0.88
2023-01-19T19:26:04.627Z,0.84
2023-01-19T19:31:10.393Z,0.79
2023-01-19T19:36:16.784Z,0.79
2023-01-19T19:41:22.423Z,0.74
2023-01-19T19:46:27.296Z,0.64
2023-01-19T19:51:32.693Z,0.56
2023-01-19T19:56:36.420Z,0.42
2023-01-19T20:01:40.282Z,0.50
2023-01-19T20:06:46.228Z,0.50
2023-01-19T20:11:50.106Z,0.56
2023-01-19T20:16:54.408Z,0.52
2023-01-19T20:21:59.607Z,0.41
2023-01-19T20:27:03.407Z,0.52
2023-01-19T20:32:07.966Z,0.59
2023-01-19T20:37:13.274Z,0.64
2023-01-19T20:42:17.190Z,0.72
2023-01-19T20:47:22.049Z,0.82
2023-01-19T20:52:27.252Z,0.91
2023-01-19T20:57:31.661Z,0.90
2023-01-19T21:02:35.407Z,0.93
2023-01-19T21:07:40.617Z,0.99
2023-01-19T21:12:44.866Z,1.06
2023-01-19T21:17:48.575Z,1.06
2023-01-19T21:22:53.847Z,1.09
2023-01-19T21:27:57.569Z,1.10
2023-01-19T21:33:02.261Z,1.10
2023-01-19T21:38:07.613Z,1.14
2023-01-19T21:43:12.190Z,1.15
2023-01-19T21:48:16.101Z,1.12
2023-01-19T21:53:21.185Z,1.19
2023-01-19T21:58:24.910Z,1.25
2023-01-19T22:03:28.974Z,1.19
2023-01-19T22:08:34.203Z,1.17
2023-01-19T22:13:39.479Z,1.15
2023-01-19T22:18:45.051Z,1.18
2023-01-19T22:23:51.821Z,1.24
2023-01-19T22:28:56.284Z,1.10
2023-01-19T22:34:00.144Z,1.17
2023-01-19T22:39:07.328Z,1.11
2023-01-19T22:44:13.753Z,1.15
2023-01-19T22:49:19.431Z,1.10
2023-01-19T22:54:24.523Z,1.09
2023-01-19T22:59:28.381Z,1.13
2023-01-19T23:04:32.121Z,1.11
2023-01-19T23:09:38.808Z,0.94
2023-01-19T23:14:42.651Z,0.69
2023-01-19T23:19:46.421Z,0.76
2023-01-19T23:24:51.526Z,0.58
2023-01-19T23:29:55.291Z,0.48
2023-01-19T23:34:59.010Z,0.68
2023-01-19T23:40:04.260Z,0.67
2023-01-19T23:45:09.692Z,0.50
2023-01-19T23:50:13.683Z,0.60
2023-01-19T23:55:18.900Z,0.70
